createdAt,value
2017-05-13T00:01:48.661Z,13.90
2017-05-13T00:04:17.951Z,13.80
2017-05-13T00:06:47.032Z,13.80
2017-05-13T00:09:16.810Z,13.70
2017-05-13T00:11:46.159Z,13.70
2017-05-13T00:14:15.205Z,13.80
2017-05-13T00:16:44.283Z,13.70
2017-05-13T00:19:13.362Z,13.70
2017-05-13T00:21:42.427Z,13.70
2017-05-13T00:24:12.256Z,13.70
2017-05-13T00:26:41.309Z,13.70
2017-05-13T00:29:10.872Z,13.70
2017-05-13T00:31:40.069Z,13.60
2017-05-13T00:34:09.152Z,13.60
2017-05-13T00:36:38.205Z,13.50
2017-05-13T00:39:07.296Z,13.60
2017-05-13T00:41:36.339Z,13.50
2017-05-13T00:44:05.419Z,13.50
2017-05-13T00:46:35.212Z,13.50
2017-05-13T00:49:04.314Z,13.60
2017-05-13T00:51:33.361Z,13.50
2017-05-13T00:54:02.423Z,13.60
2017-05-13T00:56:32.247Z,13.50
2017-05-13T00:59:01.300Z,13.50
2017-05-13T01:01:30.381Z,13.50
2017-05-13T01:03:59.429Z,13.50
2017-05-13T01:06:28.495Z,13.50
2017-05-13T01:08:57.601Z,13.40
2017-05-13T01:11:27.383Z,13.30
2017-05-13T01:13:56.469Z,13.30
2017-05-13T01:16:25.567Z,13.30
2017-05-13T01:18:54.621Z,13.30
2017-05-13T01:21:24.443Z,13.10
2017-05-13T01:23:53.509Z,13.10
2017-05-13T01:26:22.588Z,13.00
2017-05-13T01:28:51.654Z,13.00
2017-05-13T01:31:20.787Z,13.00
2017-05-13T01:33:49.868Z,13.00
2017-05-13T01:36:18.900Z,12.90
2017-05-13T01:38:49.027Z,12.90
2017-05-13T01:41:18.080Z,12.90
2017-05-13T01:43:47.429Z,12.90
2017-05-13T01:46:16.472Z,12.80
2017-05-13T01:48:45.551Z,12.80
2017-05-13T01:51:14.655Z,12.90
2017-05-13T01:53:43.695Z,12.90
2017-05-13T01:56:13.832Z,12.90
2017-05-13T01:58:43.132Z,12.80
2017-05-13T02:01:12.259Z,12.80
2017-05-13T02:03:41.306Z,12.80
2017-05-13T02:06:11.438Z,12.80
2017-05-13T02:08:40.492Z,12.80
2017-05-13T02:11:09.605Z,12.80
2017-05-13T02:13:38.648Z,12.80
2017-05-13T02:16:07.727Z,12.80
2017-05-13T02:18:36.802Z,12.80
2017-05-13T02:21:06.600Z,12.90
2017-05-13T02:23:35.688Z,12.90
2017-05-13T02:26:04.741Z,12.90
2017-05-13T02:28:33.849Z,12.90
2017-05-13T02:31:02.921Z,12.90
2017-05-13T02:33:31.955Z,12.90
2017-05-13T02:36:01.031Z,13.00
2017-05-13T02:38:30.081Z,13.00
2017-05-13T02:40:59.909Z,13.00
2017-05-13T02:43:29.687Z,13.00
2017-05-13T02:45:58.769Z,13.00
2017-05-13T02:48:27.860Z,13.00
2017-05-13T02:50:56.900Z,13.00
2017-05-13T02:53:26.712Z,13.10
2017-05-13T02:55:56.570Z,13.10
2017-05-13T02:58:25.617Z,13.10
2017-05-13T03:00:55.455Z,13.20
2017-05-13T03:03:24.494Z,13.20
2017-05-13T03:05:53.573Z,13.20
2017-05-13T03:08:22.629Z,13.20
2017-05-13T03:10:52.446Z,13.20
2017-05-13T03:13:21.493Z,13.20
2017-05-13T03:15:50.558Z,13.30
2017-05-13T03:18:19.653Z,13.30
2017-05-13T03:20:48.935Z,13.30
2017-05-13T03:23:18.031Z,13.30
2017-05-13T03:25:47.079Z,13.30
2017-05-13T03:28:16.383Z,13.30
2017-05-13T03:30:45.461Z,13.20
2017-05-13T03:33:14.507Z,13.20
2017-05-13T03:35:44.328Z,13.20
2017-05-13T03:38:13.632Z,13.30
2017-05-13T03:40:42.729Z,13.30
2017-05-13T03:43:12.131Z,13.30
2017-05-13T03:45:41.432Z,13.30
2017-05-13T03:48:10.520Z,13.40
2017-05-13T03:50:40.313Z,13.40
2017-05-13T03:53:09.449Z,13.40
2017-05-13T03:55:38.514Z,13.40
2017-05-13T03:58:08.325Z,13.40
2017-05-13T04:00:38.147Z,13.50
2017-05-13T04:03:07.927Z,13.50
2017-05-13T04:05:37.016Z,13.50
2017-05-13T04:08:06.052Z,13.60
2017-05-13T04:10:35.876Z,13.60
2017-05-13T04:13:04.926Z,13.60
2017-05-13T04:15:34.002Z,13.60
2017-05-13T04:18:03.052Z,13.60
2017-05-13T04:20:32.875Z,13.60
2017-05-13T04:23:01.928Z,13.60
2017-05-13T04:25:31.003Z,13.70
2017-05-13T04:28:00.128Z,13.70
2017-05-13T04:30:29.199Z,13.70
2017-05-13T04:32:58.256Z,13.70
2017-05-13T04:35:27.328Z,13.70
2017-05-13T04:37:57.231Z,13.70
2017-05-13T04:40:26.279Z,13.70
2017-05-13T04:42:55.346Z,13.80
2017-05-13T04:45:25.470Z,13.80
2017-05-13T04:47:54.528Z,13.80
2017-05-13T04:50:23.599Z,13.90
2017-05-13T04:52:52.701Z,13.90
2017-05-13T04:55:21.755Z,13.90
2017-05-13T04:57:50.855Z,14.00
2017-05-13T05:00:19.948Z,14.00
2017-05-13T05:02:48.983Z,14.00
2017-05-13T05:05:18.053Z,14.00
2017-05-13T05:07:47.127Z,14.10
2017-05-13T05:10:16.898Z,14.10
2017-05-13T05:12:45.988Z,14.10
2017-05-13T05:15:15.030Z,14.10
2017-05-13T05:17:44.839Z,14.10
2017-05-13T05:20:14.659Z,14.10
2017-05-13T05:22:43.699Z,14.10
2017-05-13T05:25:12.784Z,14.10
2017-05-13T05:27:41.878Z,14.10
2017-05-13T05:30:10.917Z,14.10
2017-05-13T05:32:40.243Z,14.10
2017-05-13T05:35:09.325Z,14.10
2017-05-13T05:37:39.120Z,14.20
2017-05-13T05:40:08.198Z,14.10
2017-05-13T05:42:37.244Z,14.20
2017-05-13T05:45:06.317Z,14.20
2017-05-13T05:47:35.748Z,14.20
2017-05-13T05:50:04.784Z,14.20
2017-05-13T05:52:33.874Z,14.20
2017-05-13T05:55:02.923Z,14.20
2017-05-13T05:57:32.739Z,14.20
2017-05-13T06:00:01.788Z,14.10
2017-05-13T06:02:30.868Z,14.10
2017-05-13T06:04:59.915Z,14.10
2017-05-13T06:07:29.739Z,14.10
2017-05-13T06:09:58.782Z,14.10
2017-05-13T06:12:27.860Z,14.10
2017-05-13T06:14:56.944Z,14.10
2017-05-13T06:17:25.979Z,14.10
2017-05-13T06:19:55.074Z,14.20
2017-05-13T06:22:24.126Z,14.20
2017-05-13T06:24:53.204Z,14.30
2017-05-13T06:27:23.346Z,14.20
2017-05-13T06:29:52.383Z,14.20
2017-05-13T06:32:21.473Z,14.20
2017-05-13T06:34:50.556Z,14.20
2017-05-13T06:37:19.919Z,14.20
2017-05-13T06:39:49.011Z,14.30
2017-05-13T06:42:18.055Z,14.40
2017-05-13T06:44:47.156Z,14.40
2017-05-13T06:47:16.203Z,14.50
2017-05-13T06:49:45.274Z,14.70
2017-05-13T06:52:15.091Z,14.70
2017-05-13T06:54:44.883Z,14.80
2017-05-13T06:57:13.958Z,14.70
2017-05-13T06:59:43.012Z,14.80
2017-05-13T07:02:12.107Z,14.90
2017-05-13T07:04:41.176Z,15.00
2017-05-13T07:07:10.264Z,15.00
2017-05-13T07:09:39.321Z,15.00
2017-05-13T07:12:08.404Z,15.10
2017-05-13T07:14:37.486Z,15.10
2017-05-13T07:17:06.532Z,15.10
2017-05-13T07:19:35.616Z,15.00
2017-05-13T07:22:04.703Z,15.00
2017-05-13T07:24:34.075Z,15.00
2017-05-13T07:27:03.179Z,15.00
2017-05-13T07:29:32.234Z,15.10
2017-05-13T07:32:01.308Z,15.20
2017-05-13T07:34:30.375Z,15.20
2017-05-13T07:36:59.422Z,15.30
2017-05-13T07:39:28.512Z,15.40
2017-05-13T07:41:57.557Z,15.50
2017-05-13T07:44:26.637Z,15.50
2017-05-13T07:46:56.572Z,15.50
2017-05-13T07:49:27.138Z,15.40
2017-05-13T07:51:56.230Z,15.50
2017-05-13T07:54:25.588Z,15.50
2017-05-13T07:56:54.664Z,15.50
2017-05-13T07:59:24.453Z,15.50
2017-05-13T08:01:53.545Z,15.50
2017-05-13T08:04:22.574Z,15.50
2017-05-13T08:06:51.680Z,15.60
2017-05-13T08:09:20.724Z,15.60
2017-05-13T08:11:49.808Z,15.60
2017-05-13T08:14:18.899Z,15.50
2017-05-13T08:16:48.020Z,15.50
2017-05-13T08:19:17.124Z,15.60
2017-05-13T08:21:46.169Z,15.70
2017-05-13T08:24:15.336Z,15.70
2017-05-13T08:26:45.122Z,15.60
2017-05-13T08:29:14.218Z,15.60
2017-05-13T08:31:43.267Z,15.60
2017-05-13T08:34:12.563Z,15.70
2017-05-13T08:36:41.657Z,15.70
2017-05-13T08:39:10.711Z,15.70
2017-05-13T08:41:39.801Z,15.70
2017-05-13T08:44:08.879Z,15.80
2017-05-13T08:46:37.927Z,15.80
2017-05-13T08:49:07.027Z,15.90
2017-05-13T08:51:36.124Z,16.00
2017-05-13T08:54:05.195Z,15.90
2017-05-13T08:56:34.282Z,15.90
2017-05-13T08:59:03.343Z,15.80
2017-05-13T09:01:32.439Z,15.70
2017-05-13T09:04:01.545Z,15.70
2017-05-13T09:06:30.598Z,15.70
2017-05-13T09:09:00.439Z,15.60
2017-05-13T09:11:29.956Z,15.70
2017-05-13T09:13:59.123Z,15.70
2017-05-13T09:16:28.185Z,15.70
2017-05-13T09:18:57.276Z,15.70
2017-05-13T09:21:26.355Z,15.80
2017-05-13T09:23:55.394Z,15.80
2017-05-13T09:26:24.500Z,15.90
2017-05-13T09:28:53.542Z,16.00
2017-05-13T09:31:22.622Z,16.10
2017-05-13T09:33:51.683Z,16.10
2017-05-13T09:36:20.771Z,16.00
2017-05-13T09:38:50.899Z,16.00
2017-05-13T09:41:20.199Z,16.00
2017-05-13T09:43:49.280Z,16.10
2017-05-13T09:46:19.076Z,16.10
2017-05-13T09:48:48.159Z,16.20
2017-05-13T09:51:17.203Z,16.20
2017-05-13T09:53:46.275Z,16.20
2017-05-13T09:56:16.091Z,16.30
2017-05-13T09:58:45.885Z,16.20
2017-05-13T10:01:16.043Z,16.20
2017-05-13T10:03:45.101Z,16.20
2017-05-13T10:06:14.206Z,16.10
2017-05-13T10:08:43.263Z,16.10
2017-05-13T10:11:12.337Z,16.00
2017-05-13T10:13:41.427Z,16.00
2017-05-13T10:16:10.474Z,16.00
2017-05-13T10:18:39.551Z,16.20
2017-05-13T10:21:08.657Z,16.20
2017-05-13T10:23:37.703Z,16.30
2017-05-13T10:26:06.790Z,16.30
2017-05-13T10:28:36.596Z,16.40
2017-05-13T10:31:06.385Z,16.50
2017-05-13T10:33:35.501Z,16.50
2017-05-13T10:36:05.288Z,16.60
2017-05-13T10:38:34.385Z,16.80
2017-05-13T10:41:03.428Z,16.90
2017-05-13T10:43:32.490Z,17.00
2017-05-13T10:46:02.285Z,17.10
2017-05-13T10:48:31.372Z,17.30
2017-05-13T10:51:00.410Z,17.40
2017-05-13T10:53:30.254Z,17.40
2017-05-13T10:55:59.301Z,17.40
2017-05-13T10:58:28.416Z,17.40
2017-05-13T11:00:58.244Z,17.60
2017-05-13T11:03:27.287Z,17.60
2017-05-13T11:05:56.368Z,17.70
2017-05-13T11:08:25.735Z,17.90
2017-05-13T11:10:55.031Z,17.80
2017-05-13T11:13:24.132Z,17.80
2017-05-13T11:15:53.185Z,17.90
2017-05-13T11:18:22.264Z,17.90
2017-05-13T11:20:51.348Z,17.90
2017-05-13T11:23:20.392Z,17.90
2017-05-13T11:25:50.232Z,18.00
2017-05-13T11:28:19.278Z,18.20
2017-05-13T11:30:48.358Z,18.40
2017-05-13T11:33:17.457Z,18.60
2017-05-13T11:35:46.532Z,18.70
2017-05-13T11:38:15.626Z,18.70
2017-05-13T11:40:44.668Z,18.70
2017-05-13T11:43:13.734Z,18.70
2017-05-13T11:45:42.823Z,18.80
2017-05-13T11:48:11.874Z,18.70
2017-05-13T11:50:41.687Z,18.60
2017-05-13T11:53:11.466Z,18.60
2017-05-13T11:55:40.810Z,18.50
2017-05-13T11:58:09.850Z,18.60
2017-05-13T12:00:38.953Z,18.70
2017-05-13T12:03:07.999Z,18.80
2017-05-13T12:05:37.067Z,18.90
2017-05-13T12:08:06.155Z,18.90
2017-05-13T12:10:35.490Z,19.00
2017-05-13T12:13:04.598Z,19.10
2017-05-13T12:15:33.643Z,19.10
2017-05-13T12:18:02.711Z,19.00
2017-05-13T12:20:31.791Z,19.10
2017-05-13T12:23:00.839Z,19.10
2017-05-13T12:25:29.934Z,19.20
2017-05-13T12:27:59.267Z,19.30
2017-05-13T12:30:28.368Z,19.40
2017-05-13T12:32:57.765Z,19.60
2017-05-13T12:35:26.803Z,19.70
2017-05-13T12:37:56.163Z,19.60
2017-05-13T12:40:25.198Z,19.60
2017-05-13T12:42:54.276Z,19.90
2017-05-13T12:45:23.393Z,20.00
2017-05-13T12:47:52.434Z,20.00
2017-05-13T12:50:22.255Z,20.20
2017-05-13T12:52:51.559Z,20.20
2017-05-13T12:55:20.632Z,20.30
2017-05-13T12:57:50.421Z,20.50
2017-05-13T13:00:19.499Z,20.40
2017-05-13T13:02:49.244Z,20.40
2017-05-13T13:05:18.323Z,20.50
2017-05-13T13:07:47.367Z,20.50
2017-05-13T13:10:16.668Z,20.70
2017-05-13T13:12:45.714Z,20.80
2017-05-13T13:15:14.800Z,20.90
2017-05-13T13:17:43.842Z,21.20
2017-05-13T13:20:13.669Z,21.20
2017-05-13T13:22:43.157Z,21.00
2017-05-13T13:25:12.987Z,21.00
2017-05-13T13:27:42.027Z,21.00
2017-05-13T13:30:11.114Z,21.10
2017-05-13T13:32:40.205Z,21.30
2017-05-13T13:35:09.256Z,21.50
2017-05-13T13:37:39.048Z,21.60
2017-05-13T13:40:08.387Z,21.60
2017-05-13T13:42:37.435Z,21.90
2017-05-13T13:45:06.507Z,22.00
2017-05-13T13:47:35.607Z,22.40
2017-05-13T13:50:04.967Z,23.10
2017-05-13T13:52:34.072Z,23.60
2017-05-13T13:55:03.116Z,23.70
2017-05-13T13:57:32.212Z,23.60
2017-05-13T14:00:01.252Z,23.60
2017-05-13T14:02:30.351Z,24.10
2017-05-13T14:04:59.439Z,24.40
2017-05-13T14:07:28.480Z,24.60
2017-05-13T14:09:57.564Z,24.70
2017-05-13T14:12:26.658Z,24.90
2017-05-13T14:14:55.686Z,24.40
2017-05-13T14:17:24.779Z,24.50
2017-05-13T14:19:53.844Z,24.50
2017-05-13T14:22:22.928Z,24.50
2017-05-13T14:24:52.292Z,24.20
2017-05-13T14:27:22.072Z,23.70
2017-05-13T14:29:51.141Z,23.40
2017-05-13T14:32:20.187Z,23.10
2017-05-13T14:34:49.263Z,22.80
2017-05-13T14:37:18.306Z,22.60
2017-05-13T14:39:47.707Z,22.60
2017-05-13T14:42:16.809Z,22.40
2017-05-13T14:44:45.866Z,22.40
2017-05-13T14:47:14.947Z,22.30
2017-05-13T14:49:43.988Z,21.90
2017-05-13T14:52:13.051Z,21.60
2017-05-13T14:54:42.136Z,21.70
2017-05-13T14:57:11.576Z,21.60
2017-05-13T14:59:41.384Z,21.70
2017-05-13T15:02:11.198Z,21.80
2017-05-13T15:04:41.231Z,21.90
2017-05-13T15:07:10.333Z,21.80
2017-05-13T15:09:39.375Z,21.80
2017-05-13T15:12:08.828Z,21.60
2017-05-13T15:14:37.866Z,21.50
2017-05-13T15:17:06.966Z,21.40
2017-05-13T15:19:36.024Z,21.20
2017-05-13T15:22:05.095Z,21.10
2017-05-13T15:24:35.128Z,21.20
2017-05-13T15:27:04.208Z,21.20
2017-05-13T15:29:33.997Z,21.20
2017-05-13T15:32:03.080Z,21.20
2017-05-13T15:34:32.132Z,21.00
2017-05-13T15:37:01.227Z,20.90
2017-05-13T15:39:30.311Z,20.90
2017-05-13T15:42:00.100Z,20.90
2017-05-13T15:44:29.217Z,21.00
2017-05-13T15:46:59.007Z,21.00
2017-05-13T15:49:28.100Z,20.90
2017-05-13T15:51:57.140Z,20.80
2017-05-13T15:54:26.243Z,20.90
2017-05-13T15:56:55.290Z,20.80
2017-05-13T15:59:24.354Z,20.80
2017-05-13T16:01:53.438Z,20.70
2017-05-13T16:04:22.817Z,20.80
2017-05-13T16:06:51.888Z,20.60
2017-05-13T16:09:21.666Z,20.50
2017-05-13T16:11:50.765Z,20.30
2017-05-13T16:14:19.803Z,20.30
2017-05-13T16:16:49.649Z,20.20
2017-05-13T16:19:18.692Z,20.20
2017-05-13T16:21:48.023Z,20.10
2017-05-13T16:24:17.128Z,20.00
2017-05-13T16:26:46.185Z,20.10
2017-05-13T16:29:15.515Z,20.20
2017-05-13T16:31:44.594Z,20.20
2017-05-13T16:34:14.371Z,20.10
2017-05-13T16:36:43.723Z,20.10
2017-05-13T16:39:12.771Z,20.10
2017-05-13T16:41:42.122Z,20.00
2017-05-13T16:44:11.208Z,20.00
2017-05-13T16:46:40.998Z,20.10
2017-05-13T16:49:10.092Z,20.30
2017-05-13T16:51:39.147Z,20.50
2017-05-13T16:54:08.224Z,20.50
2017-05-13T16:56:37.309Z,20.40
2017-05-13T16:59:07.105Z,20.30
2017-05-13T17:01:36.196Z,20.20
2017-05-13T17:04:05.524Z,20.10
2017-05-13T17:06:34.590Z,20.10
2017-05-13T17:09:04.026Z,20.20
2017-05-13T17:11:33.112Z,20.10
2017-05-13T17:14:02.923Z,20.10
2017-05-13T17:16:32.740Z,20.10
2017-05-13T17:19:02.527Z,20.00
2017-05-13T17:21:31.630Z,19.90
2017-05-13T17:24:00.955Z,19.90
2017-05-13T17:26:30.359Z,19.80
2017-05-13T17:28:59.763Z,19.70
2017-05-13T17:31:28.836Z,19.70
2017-05-13T17:33:58.655Z,19.70
2017-05-13T17:36:28.444Z,19.70
2017-05-13T17:38:57.552Z,19.60
2017-05-13T17:41:26.823Z,19.60
2017-05-13T17:43:55.923Z,19.50
2017-05-13T17:46:24.971Z,19.50
2017-05-13T17:48:54.072Z,19.50
2017-05-13T17:51:23.178Z,19.50
2017-05-13T17:53:52.243Z,19.50
2017-05-13T17:56:22.381Z,19.50
2017-05-13T17:58:51.428Z,19.50
2017-05-13T18:01:20.578Z,19.50
2017-05-13T18:03:49.628Z,19.50
2017-05-13T18:06:18.717Z,19.50
2017-05-13T18:08:47.803Z,19.40
2017-05-13T18:11:16.857Z,19.40
2017-05-13T18:13:45.947Z,19.30
2017-05-13T18:16:15.732Z,19.30
2017-05-13T18:18:44.798Z,19.20
2017-05-13T18:21:13.889Z,19.10
2017-05-13T18:23:43.156Z,19.10
2017-05-13T18:26:12.235Z,18.90
2017-05-13T18:28:42.019Z,18.90
2017-05-13T18:31:11.125Z,18.80
2017-05-13T18:33:40.180Z,18.80
2017-05-13T18:36:09.274Z,18.80
2017-05-13T18:38:39.068Z,18.80
2017-05-13T18:41:08.160Z,18.80
2017-05-13T18:43:37.201Z,18.80
2017-05-13T18:46:06.273Z,18.80
2017-05-13T18:48:35.314Z,18.70
2017-05-13T18:51:04.419Z,18.70
2017-05-13T18:53:33.549Z,18.60
2017-05-13T18:56:02.642Z,18.60
2017-05-13T18:58:32.531Z,18.50
2017-05-13T19:01:02.344Z,18.50
2017-05-13T19:03:32.172Z,18.40
2017-05-13T19:06:01.217Z,18.40
2017-05-13T19:08:30.308Z,18.30
2017-05-13T19:10:59.354Z,18.30
2017-05-13T19:13:29.172Z,18.30
2017-05-13T19:15:58.479Z,18.20
2017-05-13T19:18:27.523Z,18.10
2017-05-13T19:20:56.623Z,18.10
2017-05-13T19:23:25.664Z,18.00
2017-05-13T19:25:54.768Z,18.00
2017-05-13T19:28:23.821Z,18.00
2017-05-13T19:30:52.907Z,17.90
2017-05-13T19:33:21.963Z,17.90
2017-05-13T19:35:51.040Z,17.80
2017-05-13T19:38:20.079Z,17.70
2017-05-13T19:40:49.162Z,17.60
2017-05-13T19:43:18.212Z,17.60
2017-05-13T19:45:48.019Z,17.50
2017-05-13T19:48:17.848Z,17.50
2017-05-13T19:50:46.912Z,17.50
2017-05-13T19:53:15.989Z,17.50
2017-05-13T19:55:45.844Z,17.50
2017-05-13T19:58:15.763Z,17.50
2017-05-13T20:00:45.170Z,17.40
2017-05-13T20:03:14.279Z,17.40
2017-05-13T20:05:43.349Z,17.40
2017-05-13T20:08:13.180Z,17.40
2017-05-13T20:10:42.480Z,17.40
2017-05-13T20:13:11.564Z,17.30
2017-05-13T20:15:41.343Z,17.30
2017-05-13T20:18:10.419Z,17.30
2017-05-13T20:20:39.499Z,17.30
2017-05-13T20:23:08.561Z,17.30
2017-05-13T20:25:38.396Z,17.30
2017-05-13T20:28:07.448Z,17.30
2017-05-13T20:30:36.532Z,17.30
2017-05-13T20:33:05.652Z,17.20
2017-05-13T20:35:35.438Z,17.10
2017-05-13T20:38:04.595Z,17.10
2017-05-13T20:40:33.640Z,17.10
2017-05-13T20:43:02.719Z,17.10
2017-05-13T20:45:31.997Z,17.10
2017-05-13T20:48:01.034Z,17.10
2017-05-13T20:50:30.107Z,17.10
2017-05-13T20:52:59.467Z,17.10
2017-05-13T20:55:28.510Z,17.10
2017-05-13T20:57:57.580Z,17.10
2017-05-13T21:00:26.623Z,17.10
2017-05-13T21:02:55.711Z,17.00
2017-05-13T21:05:24.745Z,17.00
2017-05-13T21:07:53.848Z,17.00
2017-05-13T21:10:22.892Z,16.90
2017-05-13T21:12:51.992Z,17.00
2017-05-13T21:15:21.045Z,17.00
2017-05-13T21:17:50.118Z,17.00
2017-05-13T21:20:19.207Z,17.00
2017-05-13T21:22:49.664Z,17.00
2017-05-13T21:25:18.756Z,17.00
2017-05-13T21:27:47.799Z,16.80
2017-05-13T21:30:16.895Z,16.80
2017-05-13T21:32:45.939Z,16.80
2017-05-13T21:35:15.015Z,16.70
2017-05-13T21:37:50.551Z,16.50
2017-05-13T21:40:20.392Z,16.30
2017-05-13T21:42:49.427Z,16.30
2017-05-13T21:45:18.507Z,16.30
2017-05-13T21:47:47.601Z,16.20
2017-05-13T21:50:16.673Z,16.20
2017-05-13T21:52:45.810Z,16.20
2017-05-13T21:55:14.859Z,16.10
2017-05-13T21:57:43.971Z,16.10
2017-05-13T22:00:13.040Z,16.10
2017-05-13T22:02:42.855Z,16.00
2017-05-13T22:05:11.959Z,16.00
2017-05-13T22:07:41.027Z,15.90
2017-05-13T22:10:10.112Z,15.90
2017-05-13T22:12:39.452Z,15.90
2017-05-13T22:15:08.856Z,15.90
2017-05-13T22:17:37.930Z,15.80
2017-05-13T22:20:07.972Z,15.80
2017-05-13T22:22:37.047Z,15.80
2017-05-13T22:25:06.921Z,15.70
2017-05-13T22:27:35.933Z,15.60
2017-05-13T22:30:05.016Z,15.60
2017-05-13T22:32:34.051Z,15.60
2017-05-13T22:35:03.875Z,15.50
2017-05-13T22:37:33.279Z,15.40
2017-05-13T22:40:02.372Z,15.40
2017-05-13T22:42:32.156Z,15.40
2017-05-13T22:45:01.243Z,15.30
2017-05-13T22:47:30.297Z,15.40
2017-05-13T22:49:59.365Z,15.40
2017-05-13T22:52:29.182Z,15.30
2017-05-13T22:54:58.964Z,15.30
2017-05-13T22:57:28.042Z,15.30
2017-05-13T22:59:57.097Z,15.20
2017-05-13T23:02:26.192Z,15.20
2017-05-13T23:04:55.226Z,15.10
2017-05-13T23:07:24.303Z,15.10
2017-05-13T23:09:53.391Z,15.00
2017-05-13T23:12:22.436Z,14.90
2017-05-13T23:14:51.509Z,14.90
2017-05-13T23:17:20.866Z,14.90
2017-05-13T23:19:49.907Z,14.90
2017-05-13T23:22:19.263Z,14.90
2017-05-13T23:24:48.342Z,14.90
2017-05-13T23:27:17.405Z,15.00
2017-05-13T23:29:46.435Z,15.00
2017-05-13T23:32:16.484Z,15.00
2017-05-13T23:34:45.536Z,15.00
2017-05-13T23:37:14.611Z,15.00
2017-05-13T23:39:43.960Z,14.90
2017-05-13T23:42:12.999Z,14.90
2017-05-13T23:44:42.083Z,14.90
2017-05-13T23:47:11.126Z,14.80
2017-05-13T23:49:40.977Z,14.80
2017-05-13T23:52:10.015Z,14.80
2017-05-13T23:54:39.086Z,14.80
2017-05-13T23:57:08.170Z,14.80
2017-05-13T23:59:37.217Z,14.80
